createdAt,value
2018-04-23T00:00:35.333Z,20.62
2018-04-23T00:01:35.348Z,20.62
2018-04-23T00:02:35.395Z,20.62
2018-04-23T00:03:35.336Z,20.61
2018-04-23T00:04:35.403Z,20.61
2018-04-23T00:05:35.331Z,20.61
2018-04-23T00:06:35.344Z,20.59
2018-04-23T00:07:35.509Z,20.57
2018-04-23T00:08:35.295Z,20.57
2018-04-23T00:09:35.329Z,20.56
2018-04-23T00:10:35.340Z,20.54
2018-04-23T00:11:35.326Z,20.54
2018-04-23T00:12:35.322Z,20.54
2018-04-23T00:13:35.322Z,20.53
2018-04-23T00:14:35.404Z,20.53
2018-04-23T00:15:35.349Z,20.52
2018-04-23T00:16:35.379Z,20.5
2018-04-23T00:17:35.371Z,20.5
2018-04-23T00:18:35.367Z,20.48
2018-04-23T00:19:35.324Z,20.48
2018-04-23T00:20:35.333Z,20.44
2018-04-23T00:21:35.328Z,20.43
2018-04-23T00:22:35.366Z,20.41
2018-04-23T00:23:35.480Z,20.37
2018-04-23T00:24:35.313Z,20.34
2018-04-23T00:25:35.317Z,20.35
2018-04-23T00:26:35.363Z,20.34
2018-04-23T00:27:35.310Z,20.33
2018-04-23T00:28:35.342Z,20.34
2018-04-23T00:29:35.308Z,20.33
2018-04-23T00:30:35.317Z,20.3
2018-04-23T00:31:35.341Z,20.27
2018-04-23T00:32:35.359Z,20.27
2018-04-23T00:33:35.340Z,20.24
2018-04-23T00:34:35.374Z,20.23
2018-04-23T00:35:35.329Z,20.23
2018-04-23T00:36:35.309Z,20.22
2018-04-23T00:37:35.316Z,20.22
2018-04-23T00:38:35.326Z,20.22
2018-04-23T00:39:35.362Z,20.21
2018-04-23T00:40:35.326Z,20.19
2018-04-23T00:41:35.315Z,20.2
2018-04-23T00:42:35.320Z,20.18
2018-04-23T00:43:35.581Z,20.18
2018-04-23T00:44:35.310Z,20.17
2018-04-23T00:45:35.319Z,20.16
2018-04-23T00:46:35.314Z,20.14
2018-04-23T00:47:35.395Z,20.14
2018-04-23T00:48:35.345Z,20.12
2018-04-23T00:49:35.352Z,20.13
2018-04-23T00:50:35.335Z,20.08
2018-04-23T00:51:35.311Z,20.07
2018-04-23T00:52:35.305Z,20.07
2018-04-23T00:53:35.299Z,20.04
2018-04-23T00:54:35.308Z,20.05
2018-04-23T00:55:35.366Z,20.06
2018-04-23T00:56:35.449Z,20.04
2018-04-23T00:57:35.292Z,20.03
2018-04-23T00:58:35.301Z,20.03
2018-04-23T00:59:35.318Z,20
2018-04-23T01:00:35.322Z,19.99
2018-04-23T01:01:35.314Z,19.99
2018-04-23T01:02:35.300Z,19.98
2018-04-23T01:03:35.625Z,19.98
2018-04-23T01:04:35.471Z,19.94
2018-04-23T01:05:35.310Z,19.92
2018-04-23T01:06:35.291Z,19.92
2018-04-23T01:07:35.276Z,19.92
2018-04-23T01:08:35.321Z,19.93
2018-04-23T01:09:35.319Z,19.89
2018-04-23T01:10:35.442Z,19.9
2018-04-23T01:11:35.316Z,19.9
2018-04-23T01:12:35.289Z,19.87
2018-04-23T01:13:35.350Z,19.87
2018-04-23T01:14:35.325Z,19.85
2018-04-23T01:15:35.321Z,19.85
2018-04-23T01:16:35.334Z,19.86
2018-04-23T01:17:35.328Z,19.85
2018-04-23T01:18:35.321Z,19.85
2018-04-23T01:19:35.327Z,19.86
2018-04-23T01:20:35.290Z,19.85
2018-04-23T01:21:35.343Z,19.85
2018-04-23T01:22:35.300Z,19.81
2018-04-23T01:23:35.362Z,19.81
2018-04-23T01:24:35.338Z,19.82
2018-04-23T01:25:35.298Z,19.8
2018-04-23T01:26:35.302Z,19.78
2018-04-23T01:27:35.306Z,19.77
2018-04-23T01:28:35.288Z,19.78
2018-04-23T01:29:35.300Z,19.78
2018-04-23T01:30:35.324Z,19.77
2018-04-23T01:31:35.281Z,19.78
2018-04-23T01:32:35.315Z,19.77
2018-04-23T01:33:35.293Z,19.71
2018-04-23T01:34:35.350Z,19.69
2018-04-23T01:35:35.293Z,19.71
2018-04-23T01:36:35.283Z,19.67
2018-04-23T01:37:35.310Z,19.68
2018-04-23T01:38:35.385Z,19.69
2018-04-23T01:39:35.329Z,19.67
2018-04-23T01:40:35.314Z,19.69
2018-04-23T01:41:35.342Z,19.66
2018-04-23T01:42:35.336Z,19.67
2018-04-23T01:43:35.309Z,19.66
2018-04-23T01:44:35.311Z,19.66
2018-04-23T01:45:35.357Z,19.65
2018-04-23T01:46:35.368Z,19.63
2018-04-23T01:47:35.258Z,19.64
2018-04-23T01:48:35.311Z,19.64
2018-04-23T01:49:35.301Z,19.65
2018-04-23T01:50:35.289Z,19.64
2018-04-23T01:51:35.307Z,19.64
2018-04-23T01:52:35.275Z,19.6
2018-04-23T01:53:35.293Z,19.6
2018-04-23T01:54:35.322Z,19.6
2018-04-23T01:55:35.281Z,19.59
2018-04-23T01:56:35.297Z,19.59
2018-04-23T01:57:35.301Z,19.59
2018-04-23T01:58:35.354Z,19.58
2018-04-23T01:59:35.294Z,19.55
2018-04-23T02:00:35.278Z,19.55
2018-04-23T02:01:35.352Z,19.57
2018-04-23T02:02:35.321Z,19.56
2018-04-23T02:03:35.290Z,19.56
2018-04-23T02:04:35.343Z,19.55
2018-04-23T02:05:35.291Z,19.55
2018-04-23T02:06:35.297Z,19.58
2018-04-23T02:07:35.311Z,19.55
2018-04-23T02:08:35.296Z,19.54
2018-04-23T02:09:35.310Z,19.54
2018-04-23T02:10:35.288Z,19.54
2018-04-23T02:11:35.285Z,19.54
2018-04-23T02:12:35.298Z,19.53
2018-04-23T02:13:35.277Z,19.5
2018-04-23T02:14:35.305Z,19.53
2018-04-23T02:15:35.289Z,19.5
2018-04-23T02:16:35.319Z,19.5
2018-04-23T02:17:35.407Z,19.5
2018-04-23T02:18:35.293Z,19.5
2018-04-23T02:19:35.391Z,19.49
2018-04-23T02:20:35.327Z,19.49
2018-04-23T02:21:35.326Z,19.47
2018-04-23T02:22:35.289Z,19.48
2018-04-23T02:23:35.321Z,19.45
2018-04-23T02:24:35.442Z,19.44
2018-04-23T02:25:35.462Z,19.47
2018-04-23T02:26:35.314Z,19.45
2018-04-23T02:27:35.299Z,19.47
2018-04-23T02:28:35.277Z,19.47
2018-04-23T02:29:35.285Z,19.45
2018-04-23T02:30:35.364Z,19.45
2018-04-23T02:31:35.316Z,19.45
2018-04-23T02:32:35.325Z,19.45
2018-04-23T02:33:35.315Z,19.47
2018-04-23T02:34:35.347Z,19.44
2018-04-23T02:35:35.248Z,19.44
2018-04-23T02:36:35.673Z,19.44
2018-04-23T02:37:35.319Z,19.44
2018-04-23T02:38:35.295Z,19.45
2018-04-23T02:39:35.396Z,19.42
2018-04-23T02:40:35.339Z,19.42
2018-04-23T02:41:35.322Z,19.42
2018-04-23T02:42:35.308Z,19.42
2018-04-23T02:43:35.327Z,19.41
2018-04-23T02:44:35.278Z,19.37
2018-04-23T02:45:35.264Z,19.38
2018-04-23T02:46:35.316Z,19.39
2018-04-23T02:47:35.286Z,19.38
2018-04-23T02:48:35.325Z,19.4
2018-04-23T02:49:35.371Z,19.4
2018-04-23T02:50:35.294Z,19.38
2018-04-23T02:51:35.377Z,19.37
2018-04-23T02:52:35.394Z,19.37
2018-04-23T02:53:35.348Z,19.38
2018-04-23T02:54:35.298Z,19.37
2018-04-23T02:55:35.255Z,19.34
2018-04-23T02:56:35.289Z,19.31
2018-04-23T02:57:35.274Z,19.32
2018-04-23T02:58:35.397Z,19.3
2018-04-23T02:59:35.280Z,19.3
2018-04-23T03:00:35.333Z,19.3
2018-04-23T03:01:35.444Z,19.29
2018-04-23T03:02:35.778Z,19.28
2018-04-23T03:03:35.447Z,19.25
2018-04-23T03:04:35.331Z,19.25
2018-04-23T03:05:35.282Z,19.25
2018-04-23T03:06:35.310Z,19.24
2018-04-23T03:07:35.279Z,19.23
2018-04-23T03:08:35.309Z,19.19
2018-04-23T03:09:35.279Z,19.21
2018-04-23T03:10:35.270Z,19.22
2018-04-23T03:11:35.276Z,19.2
2018-04-23T03:12:35.249Z,19.19
2018-04-23T03:13:35.298Z,19.18
2018-04-23T03:14:35.263Z,19.17
2018-04-23T03:15:35.240Z,19.17
2018-04-23T03:16:35.249Z,19.16
2018-04-23T03:17:35.340Z,19.16
2018-04-23T03:18:35.254Z,19.15
2018-04-23T03:19:35.272Z,19.12
2018-04-23T03:20:35.300Z,19.15
2018-04-23T03:21:35.256Z,19.12
2018-04-23T03:22:35.261Z,19.15
2018-04-23T03:23:35.285Z,19.13
2018-04-23T03:24:35.286Z,19.11
2018-04-23T03:25:35.291Z,19.14
2018-04-23T03:26:35.305Z,19.14
2018-04-23T03:27:35.248Z,19.13
2018-04-23T03:28:35.262Z,19.13
2018-04-23T03:29:35.247Z,19.11
2018-04-23T03:30:35.267Z,19.11
2018-04-23T03:31:35.296Z,19.1
2018-04-23T03:32:35.268Z,19.1
2018-04-23T03:33:35.264Z,19.1
2018-04-23T03:34:35.280Z,19.1
2018-04-23T03:35:35.271Z,19.08
2018-04-23T03:36:35.579Z,19.09
2018-04-23T03:37:35.274Z,19.07
2018-04-23T03:38:35.265Z,19.09
2018-04-23T03:39:35.262Z,19.08
2018-04-23T03:40:35.417Z,19.06
2018-04-23T03:41:35.273Z,19.07
2018-04-23T03:42:35.247Z,19.04
2018-04-23T03:43:35.240Z,19.03
2018-04-23T03:44:35.244Z,19.03
2018-04-23T03:45:35.260Z,19.01
2018-04-23T03:46:35.249Z,18.97
2018-04-23T03:47:35.283Z,18.98
2018-04-23T03:48:35.335Z,18.97
2018-04-23T03:49:35.255Z,18.96
2018-04-23T03:50:35.531Z,18.93
2018-04-23T03:51:35.320Z,18.93
2018-04-23T03:52:35.275Z,18.91
2018-04-23T03:53:35.228Z,18.87
2018-04-23T03:54:35.267Z,18.89
2018-04-23T03:55:35.295Z,18.89
2018-04-23T03:56:35.606Z,18.9
2018-04-23T03:57:35.236Z,18.89
2018-04-23T03:58:35.415Z,18.87
2018-04-23T03:59:35.218Z,18.87
2018-04-23T04:00:35.259Z,18.86
2018-04-23T04:01:35.317Z,18.82
2018-04-23T04:02:35.259Z,18.81
2018-04-23T04:03:35.229Z,18.8
2018-04-23T04:04:35.271Z,18.8
2018-04-23T04:05:35.234Z,18.81
2018-04-23T04:06:35.252Z,18.79
2018-04-23T04:07:35.255Z,18.78
2018-04-23T04:08:35.264Z,18.79
2018-04-23T04:09:35.280Z,18.78
2018-04-23T04:10:35.619Z,18.78
2018-04-23T04:11:35.252Z,18.78
2018-04-23T04:12:35.252Z,18.74
2018-04-23T04:13:35.250Z,18.74
2018-04-23T04:14:35.306Z,18.77
2018-04-23T04:15:35.314Z,18.76
2018-04-23T04:16:35.391Z,18.74
2018-04-23T04:17:35.267Z,18.73
2018-04-23T04:18:35.250Z,18.73
2018-04-23T04:19:35.264Z,18.72
2018-04-23T04:20:35.273Z,18.72
2018-04-23T04:21:35.241Z,18.71
2018-04-23T04:22:35.216Z,18.68
2018-04-23T04:23:35.394Z,18.7
2018-04-23T04:24:35.681Z,18.68
2018-04-23T04:25:35.240Z,18.68
2018-04-23T04:26:35.243Z,18.7
2018-04-23T04:27:35.218Z,18.62
2018-04-23T04:28:35.256Z,18.63
2018-04-23T04:29:35.241Z,18.6
2018-04-23T04:30:35.275Z,18.6
2018-04-23T04:31:35.289Z,18.6
2018-04-23T04:32:35.294Z,18.57
2018-04-23T04:33:35.260Z,18.59
2018-04-23T04:34:35.236Z,18.59
2018-04-23T04:35:36.276Z,18.58
2018-04-23T04:36:35.282Z,18.59
2018-04-23T04:37:35.262Z,18.58
2018-04-23T04:38:35.269Z,18.6
2018-04-23T04:39:35.229Z,18.59
2018-04-23T04:40:35.243Z,18.57
2018-04-23T04:41:35.379Z,18.56
2018-04-23T04:42:35.247Z,18.56
2018-04-23T04:43:35.229Z,18.55
2018-04-23T04:44:35.223Z,18.54
2018-04-23T04:45:35.446Z,18.55
2018-04-23T04:46:35.256Z,18.55
2018-04-23T04:47:35.202Z,18.54
2018-04-23T04:48:35.217Z,18.52
2018-04-23T04:49:35.232Z,18.48
2018-04-23T04:50:35.220Z,18.48
2018-04-23T04:51:35.272Z,18.51
2018-04-23T04:52:35.228Z,18.53
2018-04-23T04:53:35.235Z,18.49
2018-04-23T04:54:35.280Z,18.5
2018-04-23T04:55:35.258Z,18.53
2018-04-23T04:56:35.241Z,18.53
2018-04-23T04:57:35.234Z,18.53
2018-04-23T04:58:35.221Z,18.51
2018-04-23T04:59:35.239Z,18.54
2018-04-23T05:00:35.227Z,18.55
2018-04-23T05:01:35.325Z,18.52
2018-04-23T05:02:35.199Z,18.54
2018-04-23T05:03:35.195Z,18.54
2018-04-23T05:04:35.253Z,18.52
2018-04-23T05:05:35.208Z,18.55
2018-04-23T05:06:35.213Z,18.55
2018-04-23T05:07:35.221Z,18.57
2018-04-23T05:08:35.380Z,18.54
2018-04-23T05:09:35.221Z,18.54
2018-04-23T05:10:35.370Z,18.51
2018-04-23T05:11:35.341Z,18.47
2018-04-23T05:12:35.214Z,18.48
2018-04-23T05:13:35.307Z,18.45
2018-04-23T05:14:35.448Z,18.46
2018-04-23T05:15:35.252Z,18.45
2018-04-23T05:16:35.266Z,18.47
2018-04-23T05:17:35.264Z,18.48
2018-04-23T05:18:35.230Z,18.5
2018-04-23T05:19:35.427Z,18.51
2018-04-23T05:20:35.218Z,18.54
2018-04-23T05:21:35.238Z,18.56
2018-04-23T05:22:35.220Z,18.58
2018-04-23T05:23:35.443Z,18.61
2018-04-23T05:24:35.245Z,18.64
2018-04-23T05:25:35.358Z,18.66
2018-04-23T05:26:35.241Z,18.67
2018-04-23T05:27:35.264Z,18.67
2018-04-23T05:28:35.268Z,18.71
2018-04-23T05:29:35.277Z,18.72
2018-04-23T05:30:35.286Z,18.73
2018-04-23T05:31:35.237Z,18.74
2018-04-23T05:32:35.248Z,18.73
2018-04-23T05:33:35.392Z,18.74
2018-04-23T05:34:35.248Z,18.74
2018-04-23T05:35:35.273Z,18.75
2018-04-23T05:36:35.227Z,18.75
2018-04-23T05:37:35.724Z,18.77
2018-04-23T05:38:35.398Z,18.75
2018-04-23T05:39:35.272Z,18.77
2018-04-23T05:40:35.381Z,18.76
2018-04-23T05:41:35.231Z,18.75
2018-04-23T05:42:35.292Z,18.75
2018-04-23T05:43:35.276Z,18.74
2018-04-23T05:44:35.284Z,18.73
2018-04-23T05:45:35.276Z,18.72
2018-04-23T05:46:35.252Z,18.74
2018-04-23T05:47:35.320Z,18.75
2018-04-23T05:48:35.230Z,18.75
2018-04-23T05:49:35.257Z,18.8
2018-04-23T05:50:35.282Z,18.79
2018-04-23T05:51:35.247Z,18.79
2018-04-23T05:52:35.399Z,18.81
2018-04-23T05:53:35.249Z,18.83
2018-04-23T05:54:35.305Z,18.85
2018-04-23T05:55:35.245Z,18.86
2018-04-23T05:56:35.292Z,18.86
2018-04-23T05:57:35.227Z,18.89
2018-04-23T05:58:35.241Z,18.91
2018-04-23T05:59:35.265Z,18.92
2018-04-23T06:00:35.249Z,18.92
2018-04-23T06:01:35.259Z,18.91
2018-04-23T06:02:35.514Z,18.91
2018-04-23T06:03:35.449Z,18.88
2018-04-23T06:04:35.269Z,18.88
2018-04-23T06:05:35.242Z,18.83
2018-04-23T06:06:35.274Z,18.81
2018-04-23T06:07:35.377Z,18.77
2018-04-23T06:08:35.290Z,18.77
2018-04-23T06:09:35.412Z,18.76
2018-04-23T06:10:35.259Z,18.75
2018-04-23T06:11:35.266Z,18.74
2018-04-23T06:12:35.311Z,18.74
2018-04-23T06:13:35.239Z,18.74
2018-04-23T06:14:35.257Z,18.73
2018-04-23T06:15:35.330Z,18.67
2018-04-23T06:16:35.306Z,18.64
2018-04-23T06:17:35.679Z,18.63
2018-04-23T06:18:35.389Z,18.56
2018-04-23T06:19:35.313Z,18.45
2018-04-23T06:20:35.277Z,18.43
2018-04-23T06:21:35.264Z,18.24
2018-04-23T06:22:35.640Z,18.21
2018-04-23T06:23:35.252Z,18.1
2018-04-23T06:24:35.383Z,18.07
2018-04-23T06:25:35.248Z,17.91
2018-04-23T06:26:35.262Z,17.91
2018-04-23T06:27:35.265Z,17.79
2018-04-23T06:28:35.296Z,17.85
2018-04-23T06:29:35.273Z,17.82
2018-04-23T06:30:35.265Z,17.84
2018-04-23T06:31:35.290Z,17.84
2018-04-23T06:32:35.290Z,17.84
2018-04-23T06:33:35.250Z,17.87
2018-04-23T06:34:35.309Z,17.87
2018-04-23T06:35:35.299Z,17.87
2018-04-23T06:36:35.494Z,17.89
2018-04-23T06:37:35.293Z,17.9
2018-04-23T06:38:35.265Z,17.9
2018-04-23T06:39:35.308Z,17.9
2018-04-23T06:40:35.269Z,17.89
2018-04-23T06:41:35.429Z,17.91
2018-04-23T06:42:35.320Z,17.86
2018-04-23T06:43:35.364Z,17.81
2018-04-23T06:44:35.305Z,17.86
2018-04-23T06:45:35.321Z,17.86
2018-04-23T06:46:35.289Z,17.88
2018-04-23T06:47:35.288Z,17.85
2018-04-23T06:48:35.269Z,17.87
2018-04-23T06:49:35.271Z,17.87
2018-04-23T06:50:35.272Z,17.85
2018-04-23T06:51:35.292Z,17.86
2018-04-23T06:52:35.287Z,17.85
2018-04-23T06:53:35.415Z,17.79
2018-04-23T06:54:35.618Z,17.78
2018-04-23T06:55:35.327Z,17.71
2018-04-23T06:56:35.293Z,17.74
2018-04-23T06:57:35.273Z,17.74
2018-04-23T06:58:35.276Z,17.75
2018-04-23T06:59:35.329Z,17.75
2018-04-23T07:00:35.322Z,17.73
2018-04-23T07:01:35.298Z,17.74
2018-04-23T07:02:35.329Z,17.74
2018-04-23T07:03:35.301Z,17.73
2018-04-23T07:04:35.321Z,17.74
2018-04-23T07:05:35.260Z,17.74
2018-04-23T07:06:35.284Z,17.72
2018-04-23T07:07:35.268Z,17.74
2018-04-23T07:08:35.304Z,17.71
2018-04-23T07:09:35.301Z,17.71
2018-04-23T07:10:35.328Z,17.72
2018-04-23T07:11:35.295Z,17.72
2018-04-23T07:12:35.269Z,17.75
2018-04-23T07:13:35.258Z,17.74
2018-04-23T07:14:35.279Z,17.71
2018-04-23T07:15:35.311Z,17.71
2018-04-23T07:16:35.692Z,17.7
2018-04-23T07:17:35.305Z,17.7
2018-04-23T07:18:35.283Z,17.71
2018-04-23T07:19:35.291Z,17.75
2018-04-23T07:20:35.355Z,17.75
2018-04-23T07:21:35.327Z,17.75
2018-04-23T07:22:35.391Z,17.75
2018-04-23T07:23:35.266Z,17.74
2018-04-23T07:24:35.321Z,17.72
2018-04-23T07:25:35.314Z,17.72
2018-04-23T07:26:35.315Z,17.74
2018-04-23T07:27:35.341Z,17.72
2018-04-23T07:28:35.274Z,17.71
2018-04-23T07:29:35.310Z,17.7
2018-04-23T07:30:35.656Z,17.69
2018-04-23T07:31:35.300Z,17.69
2018-04-23T07:32:35.326Z,17.69
2018-04-23T07:33:35.342Z,17.7
2018-04-23T07:34:35.298Z,17.68
2018-04-23T07:35:35.315Z,17.68
2018-04-23T07:36:35.321Z,17.68
2018-04-23T07:37:35.288Z,17.69
2018-04-23T07:38:35.309Z,17.69
2018-04-23T07:39:35.313Z,17.68
2018-04-23T07:40:35.318Z,17.65
2018-04-23T07:41:35.316Z,17.65
2018-04-23T07:42:35.302Z,17.64
2018-04-23T07:43:35.294Z,17.62
2018-04-23T07:44:35.319Z,17.62
2018-04-23T07:45:35.429Z,17.6
2018-04-23T07:46:35.332Z,17.58
2018-04-23T07:47:35.372Z,17.58
2018-04-23T07:48:35.393Z,17.58
2018-04-23T07:49:35.349Z,17.58
2018-04-23T07:50:37.296Z,17.56
2018-04-23T07:51:35.314Z,17.54
2018-04-23T07:52:35.302Z,17.56
2018-04-23T07:53:35.295Z,17.54
2018-04-23T07:54:35.303Z,17.57
2018-04-23T07:55:35.290Z,17.56
2018-04-23T07:56:35.366Z,17.61
2018-04-23T07:57:35.333Z,17.59
2018-04-23T07:58:35.345Z,17.6
2018-04-23T07:59:35.381Z,17.61
2018-04-23T08:00:35.316Z,17.6
2018-04-23T08:01:35.361Z,17.61
2018-04-23T08:02:35.329Z,17.59
2018-04-23T08:03:35.324Z,17.6
2018-04-23T08:04:35.351Z,17.63
2018-04-23T08:05:35.351Z,17.62
2018-04-23T08:06:35.747Z,17.63
2018-04-23T08:07:35.317Z,17.63
2018-04-23T08:08:35.297Z,17.61
2018-04-23T08:09:35.338Z,17.63
2018-04-23T08:10:35.402Z,17.64
2018-04-23T08:11:35.358Z,17.64
2018-04-23T08:12:35.647Z,17.66
2018-04-23T08:13:35.345Z,17.6
2018-04-23T08:14:35.306Z,17.63
2018-04-23T08:15:35.343Z,17.62
2018-04-23T08:16:35.369Z,17.59
2018-04-23T08:17:35.374Z,17.59
2018-04-23T08:18:35.317Z,17.58
2018-04-23T08:19:35.359Z,17.57
2018-04-23T08:20:35.334Z,17.53
2018-04-23T08:21:35.328Z,17.52
2018-04-23T08:22:35.547Z,17.52
2018-04-23T08:23:35.370Z,17.5
2018-04-23T08:24:35.374Z,17.5
2018-04-23T08:25:35.315Z,17.49
2018-04-23T08:26:36.116Z,17.5
2018-04-23T08:27:35.368Z,17.48
2018-04-23T08:28:35.335Z,17.5
2018-04-23T08:29:35.349Z,17.48
2018-04-23T08:30:35.370Z,17.5
2018-04-23T08:31:35.380Z,17.49
2018-04-23T08:32:35.340Z,17.5
2018-04-23T08:33:35.390Z,17.51
2018-04-23T08:34:35.374Z,17.5
2018-04-23T08:35:35.438Z,17.5
2018-04-23T08:36:35.370Z,17.5
2018-04-23T08:37:35.927Z,17.46
2018-04-23T08:38:35.412Z,17.51
2018-04-23T08:39:35.430Z,17.49
2018-04-23T08:40:35.333Z,17.49
2018-04-23T08:41:35.347Z,17.49
2018-04-23T08:42:35.332Z,17.52
2018-04-23T08:43:35.382Z,17.51
2018-04-23T08:44:35.334Z,17.52
2018-04-23T08:45:35.327Z,17.52
2018-04-23T08:46:35.371Z,17.52
2018-04-23T08:47:35.346Z,17.55
2018-04-23T08:48:35.373Z,17.56
2018-04-23T08:49:35.446Z,17.56
2018-04-23T08:50:35.344Z,17.56
2018-04-23T08:51:35.328Z,17.58
2018-04-23T08:52:35.348Z,17.57
2018-04-23T08:53:35.390Z,17.57
2018-04-23T08:54:35.519Z,17.56
2018-04-23T08:55:35.327Z,17.56
2018-04-23T08:56:35.416Z,17.57
2018-04-23T08:57:35.500Z,17.58
2018-04-23T08:58:35.345Z,17.58
2018-04-23T08:59:35.465Z,17.59
2018-04-23T09:00:35.365Z,17.59
2018-04-23T09:01:35.341Z,17.61
2018-04-23T09:02:35.376Z,17.61
2018-04-23T09:03:35.414Z,17.64
2018-04-23T09:04:35.523Z,17.63
2018-04-23T09:05:35.350Z,17.63
2018-04-23T09:06:35.359Z,17.63
2018-04-23T09:07:35.373Z,17.63
2018-04-23T09:08:35.819Z,17.64
2018-04-23T09:09:35.480Z,17.65
2018-04-23T09:10:35.343Z,17.66
2018-04-23T09:11:35.384Z,17.67
2018-04-23T09:12:35.357Z,17.68
2018-04-23T09:13:35.474Z,17.71
2018-04-23T09:14:35.391Z,17.72
2018-04-23T09:15:35.346Z,17.73
2018-04-23T09:16:35.725Z,17.74
2018-04-23T09:17:35.440Z,17.78
2018-04-23T09:18:35.368Z,17.81
2018-04-23T09:19:35.371Z,17.83
2018-04-23T09:20:35.337Z,17.84
2018-04-23T09:21:35.371Z,17.84
2018-04-23T09:22:35.373Z,17.89
2018-04-23T09:23:35.397Z,17.91
2018-04-23T09:24:35.378Z,17.94
2018-04-23T09:25:35.335Z,17.96
2018-04-23T09:26:35.361Z,17.98
2018-04-23T09:27:35.366Z,17.94
2018-04-23T09:28:35.386Z,17.97
2018-04-23T09:29:35.381Z,17.96
2018-04-23T09:30:35.357Z,17.97
2018-04-23T09:31:35.910Z,18.01
2018-04-23T09:32:35.362Z,18.02
2018-04-23T09:33:35.368Z,18.05
2018-04-23T09:34:35.392Z,18.05
2018-04-23T09:35:35.382Z,18.04
2018-04-23T09:36:35.676Z,18.09
2018-04-23T09:37:35.400Z,18.1
2018-04-23T09:38:35.339Z,18.14
2018-04-23T09:39:35.401Z,18.16
2018-04-23T09:40:35.355Z,18.21
2018-04-23T09:41:35.361Z,18.23
2018-04-23T09:42:35.390Z,18.29
2018-04-23T09:43:35.407Z,18.32
2018-04-23T09:44:36.586Z,18.39
2018-04-23T09:45:35.395Z,18.43
2018-04-23T09:46:35.431Z,18.46
2018-04-23T09:47:35.453Z,18.51
2018-04-23T09:48:35.353Z,18.53
2018-04-23T09:49:35.443Z,18.56
2018-04-23T09:50:35.397Z,18.6
2018-04-23T09:51:35.347Z,18.63
2018-04-23T09:52:35.404Z,18.67
2018-04-23T09:53:35.420Z,18.67
2018-04-23T09:54:35.426Z,18.66
2018-04-23T09:55:35.407Z,18.69
2018-04-23T09:56:35.368Z,18.7
2018-04-23T09:57:35.426Z,18.76
2018-04-23T09:58:35.946Z,18.78
2018-04-23T09:59:35.506Z,18.8
2018-04-23T10:00:35.408Z,18.84
2018-04-23T10:01:35.406Z,18.88
2018-04-23T10:02:35.409Z,18.92
2018-04-23T10:03:35.527Z,18.97
2018-04-23T10:04:35.428Z,19.02
2018-04-23T10:05:35.466Z,19.06
2018-04-23T10:06:35.391Z,19.04
2018-04-23T10:07:35.470Z,19.04
2018-04-23T10:08:35.415Z,19.08
2018-04-23T10:09:35.395Z,19.1
2018-04-23T10:10:35.443Z,19.14
2018-04-23T10:11:35.523Z,19.16
2018-04-23T10:12:35.394Z,19.16
2018-04-23T10:13:35.400Z,19.17
2018-04-23T10:14:35.398Z,19.17
2018-04-23T10:15:35.424Z,19.21
2018-04-23T10:16:35.441Z,19.28
2018-04-23T10:17:35.438Z,19.3
2018-04-23T10:18:35.811Z,19.36
2018-04-23T10:19:35.497Z,19.4
2018-04-23T10:20:35.561Z,19.43
2018-04-23T10:21:35.424Z,19.48
2018-04-23T10:22:35.422Z,19.49
2018-04-23T10:23:35.430Z,19.49
2018-04-23T10:24:35.407Z,19.52
2018-04-23T10:25:35.509Z,19.53
2018-04-23T10:26:35.461Z,19.58
2018-04-23T10:27:35.412Z,19.52
2018-04-23T10:28:35.466Z,19.53
2018-04-23T10:29:35.419Z,19.54
2018-04-23T10:30:35.456Z,19.61
2018-04-23T10:31:35.516Z,19.59
2018-04-23T10:32:35.413Z,19.59
2018-04-23T10:33:35.408Z,19.62
2018-04-23T10:34:35.443Z,19.65
2018-04-23T10:35:35.827Z,19.64
2018-04-23T10:36:35.409Z,19.71
2018-04-23T10:37:35.446Z,19.77
2018-04-23T10:38:35.697Z,19.81
2018-04-23T10:39:35.395Z,19.85
2018-04-23T10:40:35.466Z,19.82
2018-04-23T10:41:35.524Z,19.8
2018-04-23T10:42:35.449Z,19.8
2018-04-23T10:43:35.442Z,19.78
2018-04-23T10:44:35.376Z,19.86
2018-04-23T10:45:35.894Z,19.93
2018-04-23T10:46:35.440Z,19.95
2018-04-23T10:47:35.460Z,19.96
2018-04-23T10:48:35.561Z,19.97
2018-04-23T10:49:35.439Z,19.96
2018-04-23T10:50:35.491Z,19.98
2018-04-23T10:51:35.424Z,19.96
2018-04-23T10:52:35.423Z,19.98
2018-04-23T10:53:35.473Z,19.99
2018-04-23T10:54:35.461Z,19.99
2018-04-23T10:55:35.479Z,20.02
2018-04-23T10:56:35.424Z,20.01
2018-04-23T10:57:35.440Z,19.91
2018-04-23T10:58:35.438Z,19.87
2018-04-23T10:59:35.467Z,19.85
2018-04-23T11:00:35.422Z,19.75
2018-04-23T11:01:35.446Z,19.75
2018-04-23T11:02:35.498Z,19.74
2018-04-23T11:03:35.450Z,19.71
2018-04-23T11:04:35.427Z,19.63
2018-04-23T11:05:35.467Z,19.62
2018-04-23T11:06:35.484Z,19.64
2018-04-23T11:07:35.430Z,19.66
2018-04-23T11:08:35.431Z,19.67
2018-04-23T11:09:35.726Z,19.68
2018-04-23T11:10:35.546Z,19.73
2018-04-23T11:11:35.459Z,19.73
2018-04-23T11:12:35.469Z,19.75
2018-04-23T11:13:35.471Z,19.79
2018-04-23T11:14:35.465Z,19.84
2018-04-23T11:15:35.596Z,19.83
2018-04-23T11:16:35.530Z,19.87
2018-04-23T11:17:35.483Z,19.86
2018-04-23T11:18:35.432Z,19.88
2018-04-23T11:19:35.532Z,19.87
2018-04-23T11:20:35.464Z,19.79
2018-04-23T11:21:35.419Z,19.76
2018-04-23T11:22:35.483Z,19.77
2018-04-23T11:23:35.553Z,19.7
2018-04-23T11:24:35.457Z,19.7
2018-04-23T11:25:35.458Z,19.67
2018-04-23T11:26:35.500Z,19.57
2018-04-23T11:27:35.468Z,19.58
2018-04-23T11:28:35.669Z,19.5
2018-04-23T11:29:35.423Z,19.5
2018-04-23T11:30:35.490Z,19.52
2018-04-23T11:31:35.610Z,19.49
2018-04-23T11:32:35.792Z,19.55
2018-04-23T11:33:35.483Z,19.55
2018-04-23T11:34:35.460Z,19.55
2018-04-23T11:35:35.440Z,19.56
2018-04-23T11:36:35.456Z,19.53
2018-04-23T11:37:35.491Z,19.5
2018-04-23T11:38:35.478Z,19.48
2018-04-23T11:39:35.461Z,19.51
2018-04-23T11:40:35.432Z,19.47
2018-04-23T11:41:35.470Z,19.51
2018-04-23T11:42:35.493Z,19.53
2018-04-23T11:43:35.447Z,19.46
2018-04-23T11:44:35.435Z,19.46
2018-04-23T11:45:35.515Z,19.49
2018-04-23T11:46:35.564Z,19.52
2018-04-23T11:47:35.471Z,19.53
2018-04-23T11:48:35.461Z,19.59
2018-04-23T11:49:35.525Z,19.61
2018-04-23T11:50:35.457Z,19.65
2018-04-23T11:51:35.513Z,19.71
2018-04-23T11:52:35.474Z,19.72
2018-04-23T11:53:35.499Z,19.73
2018-04-23T11:54:35.506Z,19.71
2018-04-23T11:55:35.471Z,19.72
2018-04-23T11:56:35.453Z,19.72
2018-04-23T11:57:35.492Z,19.79
2018-04-23T11:58:35.628Z,19.82
2018-04-23T11:59:35.457Z,19.86
2018-04-23T12:00:35.447Z,19.91
2018-04-23T12:01:35.468Z,19.92
2018-04-23T12:02:35.465Z,19.9
2018-04-23T12:03:35.483Z,19.93
2018-04-23T12:04:36.086Z,19.9
2018-04-23T12:05:35.584Z,19.88
2018-04-23T12:06:35.471Z,19.89
2018-04-23T12:07:35.501Z,19.9
2018-04-23T12:08:35.492Z,19.91
2018-04-23T12:09:35.612Z,19.96
2018-04-23T12:10:35.450Z,19.96
2018-04-23T12:11:35.465Z,19.97
2018-04-23T12:12:35.484Z,19.97
2018-04-23T12:13:35.501Z,19.99
2018-04-23T12:14:35.533Z,20.03
2018-04-23T12:15:35.479Z,20.03
2018-04-23T12:16:35.494Z,20.04
2018-04-23T12:17:35.490Z,20.01
2018-04-23T12:18:35.466Z,19.95
2018-04-23T12:19:35.505Z,19.98
2018-04-23T12:20:35.520Z,19.99
2018-04-23T12:21:35.860Z,19.88
2018-04-23T12:22:35.509Z,19.91
2018-04-23T12:23:35.672Z,19.95
2018-04-23T12:24:35.494Z,19.91
2018-04-23T12:25:35.506Z,19.89
2018-04-23T12:26:35.563Z,19.93
2018-04-23T12:27:35.553Z,19.97
2018-04-23T12:28:35.496Z,20.01
2018-04-23T12:29:35.544Z,20.03
2018-04-23T12:30:35.564Z,19.96
2018-04-23T12:31:35.515Z,20.01
2018-04-23T12:32:35.587Z,20
2018-04-23T12:33:35.502Z,20.01
2018-04-23T12:34:35.877Z,19.98
2018-04-23T12:35:35.522Z,20.07
2018-04-23T12:36:35.677Z,20.1
2018-04-23T12:37:37.317Z,20.17
2018-04-23T12:38:35.543Z,20.22
2018-04-23T12:39:35.561Z,20.27
2018-04-23T12:40:35.511Z,20.32
2018-04-23T12:41:35.499Z,20.34
2018-04-23T12:42:35.493Z,20.35
2018-04-23T12:43:35.539Z,20.35
2018-04-23T12:44:35.572Z,20.41
2018-04-23T12:45:35.528Z,20.47
2018-04-23T12:46:35.527Z,20.54
2018-04-23T12:47:35.455Z,20.59
2018-04-23T12:48:35.478Z,20.58
2018-04-23T12:49:35.533Z,20.63
2018-04-23T12:50:35.523Z,20.6
2018-04-23T12:51:35.511Z,20.65
2018-04-23T12:52:35.475Z,20.6
2018-04-23T12:53:35.496Z,20.67
2018-04-23T12:54:35.526Z,20.77
2018-04-23T12:55:35.540Z,20.77